Time;durP1;ratioP1;P1;durP2;ratioP2;P2;SDS_P1;SDS_P2;PMS_P1;PMS_P2;Temp;Humidity;BMP_temperature;BMP_pressure;BME280_temperature;BME280_humidity;BME280_pressure;Samples;Min_cycle;Max_cycle;Signal;HPM_P1;HPM_P2
2022/08/30 00:01:01;;;;;;;4.10;1.98;;;;;;;22.13;45.90;99703.66;345007;28;1184;-78
2022/08/30 00:01:04;;;;;;;3.50;1.90;;;;;;;22.06;45.90;99702.50;346258;28;1094;-78
2022/08/30 00:01:28;;;;;;;3.08;1.83;;;;;;;22.06;45.65;99697.19;346308;28;1920;-78
2022/08/30 00:01:41;;;;;;;2.58;1.70;;;;;;;22.05;45.42;99696.34;345221;28;1713;-78
2022/08/30 00:01:53;;;;;;;3.28;1.85;;;;;;;22.06;45.95;99707.78;345710;28;1494;-77
2022/08/30 00:02:05;;;;;;;4.00;1.98;;;;;;;22.06;45.71;99702.50;345202;28;1838;-77
2022/08/30 00:02:19;;;;;;;4.03;1.98;;;;;;;22.07;45.48;99698.88;346647;28;1694;-77
2022/08/30 00:02:33;;;;;;;3.22;1.90;;;;;;;22.07;45.80;99698.88;347835;28;1552;-77
2022/08/30 00:02:46;;;;;;;4.43;2.00;;;;;;;22.06;45.53;99699.84;346454;28;1046;-77
2022/08/30 00:02:59;;;;;;;4.78;2.05;;;;;;;22.03;45.29;99702.72;345849;28;1634;-77
2022/08/30 00:03:13;;;;;;;4.20;1.85;;;;;;;22.03;45.37;99702.72;343026;28;1503;-77
2022/08/30 00:03:26;;;;;;;3.40;1.70;;;;;;;22.01;45.57;99700.19;343698;28;1193;-77
2022/08/30 00:03:46;;;;;;;2.80;1.80;;;;;;;22.01;45.24;99704.66;343135;28;1744;-77
2022/08/30 00:03:59;;;;;;;4.03;2.00;;;;;;;22.01;45.55;99699.34;341987;28;1756;-77
2022/08/30 00:04:11;;;;;;;4.80;2.10;;;;;;;22.00;45.17;99705.63;343326;28;1587;-77
2022/08/30 00:04:24;;;;;;;4.40;2.10;;;;;;;22.00;45.40;99703.00;343871;28;1604;-77
2022/08/30 00:04:36;;;;;;;3.42;1.95;;;;;;;21.99;45.37;99701.28;343673;28;1642;-77
2022/08/30 00:04:48;;;;;;;3.60;2.00;;;;;;;21.98;45.22;99704.91;343557;28;1717;-77
2022/08/30 00:05:01;;;;;;;4.28;2.00;;;;;;;21.99;45.05;99701.28;344387;28;1847;-77
2022/08/30 00:05:16;;;;;;;4.57;2.00;;;;;;;21.98;45.56;99708.41;345289;28;1193;-77
2022/08/30 00:05:29;;;;;;;4.80;1.90;;;;;;;21.96;45.64;99704.19;345875;28;1618;-77
2022/08/30 00:05:42;;;;;;;4.25;1.92;;;;;;;21.96;45.33;99701.53;345049;28;1058;-77
2022/08/30 00:05:54;;;;;;;3.25;1.80;;;;;;;21.97;45.52;99697.91;344779;28;1047;-77
2022/08/30 00:06:08;;;;;;;3.05;1.60;;;;;;;21.95;45.86;99705.97;345351;28;1708;-77
2022/08/30 00:06:21;;;;;;;3.05;1.60;;;;;;;21.94;45.69;99705.13;344319;28;1915;-77
2022/08/30 00:06:34;;;;;;;2.80;1.77;;;;;;;21.94;45.67;99699.84;345086;28;1031;-77
2022/08/30 00:06:46;;;;;;;2.95;2.00;;;;;;;21.93;45.72;99703.47;344081;28;771;-77
2022/08/30 00:06:58;;;;;;;3.42;2.08;;;;;;;21.90;45.77;99703.69;343442;28;1667;-77
2022/08/30 00:07:10;;;;;;;3.90;1.90;;;;;;;21.90;45.80;99703.69;342443;28;1632;-77
2022/08/30 00:07:22;;;;;;;4.18;1.90;;;;;;;21.89;45.88;99701.16;342673;28;1172;-77
2022/08/30 00:07:34;;;;;;;3.92;1.95;;;;;;;21.90;46.04;99702.88;342694;28;1300;-77
2022/08/30 00:07:47;;;;;;;3.42;1.92;;;;;;;21.89;46.15;99699.38;342879;28;1023;-77
2022/08/30 00:07:59;;;;;;;2.97;1.80;;;;;;;21.87;46.18;99698.66;339703;29;1820;-77
2022/08/30 00:08:12;;;;;;;3.70;1.98;;;;;;;21.87;46.87;99703.97;340528;28;1724;-77
2022/08/30 00:08:25;;;;;;;4.03;2.15;;;;;;;21.87;46.59;99703.09;341381;28;1400;-77
2022/08/30 00:08:39;;;;;;;4.18;2.08;;;;;;;21.87;46.40;99700.44;343252;28;1181;-77
2022/08/30 00:08:52;;;;;;;6.10;1.92;;;;;;;21.86;46.48;99694.31;344407;28;1138;-77
2022/08/30 00:09:04;;;;;;;5.25;1.90;;;;;;;21.87;46.46;99705.75;341403;28;3704;-77
2022/08/30 00:09:16;;;;;;;3.63;1.85;;;;;;;21.88;46.21;99700.34;343827;28;2488;-77
2022/08/30 00:09:28;;;;;;;2.72;1.70;;;;;;;21.84;46.56;99698.91;344123;28;1659;-77
2022/08/30 00:09:40;;;;;;;2.15;1.77;;;;;;;21.84;46.11;99698.91;343364;28;2587;-77
2022/08/30 00:09:52;;;;;;;2.30;1.70;;;;;;;21.82;46.33;99705.28;343721;28;1166;-77
2022/08/30 00:10:04;;;;;;;2.60;1.80;;;;;;;21.81;46.00;99699.16;342903;28;1725;-77
2022/08/30 00:10:16;;;;;;;2.83;1.88;;;;;;;21.82;46.40;99697.34;343659;28;1732;-77
2022/08/30 00:10:29;;;;;;;3.70;1.90;;;;;;;21.82;46.03;99705.28;345168;28;1182;-77
2022/08/30 00:10:42;;;;;;;3.97;2.03;;;;;;;21.84;46.47;99703.34;346028;28;1086;-77
2022/08/30 00:10:54;;;;;;;4.35;2.15;;;;;;;21.81;46.30;99699.16;343623;28;1059;-77
2022/08/30 00:11:09;;;;;;;4.45;2.20;;;;;;;21.82;46.02;99700.81;343830;28;2450;-77
2022/08/30 00:11:25;;;;;;;3.95;2.10;;;;;;;21.80;46.06;99707.19;346521;28;1112;-77
2022/08/30 00:11:37;;;;;;;3.27;1.87;;;;;;;21.78;46.54;99704.66;346763;28;1748;-77
2022/08/30 00:11:50;;;;;;;3.15;1.80;;;;;;;21.75;47.40;99704.91;345551;28;1070;-77
2022/08/30 00:12:03;;;;;;;3.70;1.92;;;;;;;21.74;46.45;99708.53;345113;28;1834;-77
2022/08/30 00:12:15;;;;;;;4.25;2.03;;;;;;;21.75;46.84;99704.91;346142;28;1785;-77
2022/08/30 00:12:27;;;;;;;4.88;2.03;;;;;;;21.75;46.42;99704.91;346357;28;1444;-77
2022/08/30 00:12:39;;;;;;;3.97;1.90;;;;;;;21.76;46.46;99706.59;345434;28;1930;-77
2022/08/30 00:12:51;;;;;;;2.70;1.90;;;;;;;21.75;46.29;99704.91;345436;28;2281;-77
2022/08/30 00:13:05;;;;;;;2.20;1.80;;;;;;;21.74;46.12;99708.53;345473;28;1776;-77
2022/08/30 00:13:19;;;;;;;3.10;1.90;;;;;;;21.73;46.04;99701.53;345700;28;1754;-77
2022/08/30 00:13:31;;;;;;;6.15;2.30;;;;;;;21.69;45.76;99700.94;346776;28;791;-77
2022/08/30 00:13:45;;;;;;;5.72;2.28;;;;;;;21.70;45.78;99704.44;346454;28;1796;-77
2022/08/30 00:13:57;;;;;;;4.03;2.03;;;;;;;21.70;46.29;99699.13;345045;28;1151;-77
2022/08/30 00:14:09;;;;;;;2.88;1.90;;;;;;;21.70;46.54;99707.91;343837;28;1185;-77
2022/08/30 00:14:21;;;;;;;3.90;2.10;;;;;;;21.69;46.20;99698.31;344776;28;1158;-77
2022/08/30 00:14:33;;;;;;;4.22;2.00;;;;;;;21.68;46.95;99704.53;342666;28;1114;-77
2022/08/30 00:14:45;;;;;;;3.90;2.00;;;;;;;21.68;47.82;99699.25;344365;28;1456;-77
2022/08/30 00:14:57;;;;;;;3.13;2.00;;;;;;;21.67;48.03;99702.00;345080;28;1075;-77
2022/08/30 00:15:11;;;;;;;3.13;1.98;;;;;;;21.65;47.27;99699.50;344732;28;2355;-77
2022/08/30 00:15:24;;;;;;;3.80;2.10;;;;;;;21.67;47.28;99707.31;344825;28;1364;-78
2022/08/30 00:15:36;;;;;;;5.78;2.10;;;;;;;21.65;46.85;99699.50;344346;28;1238;-78
2022/08/30 00:15:49;;;;;;;5.68;1.92;;;;;;;21.65;47.07;99698.66;343717;28;1111;-78
2022/08/30 00:16:02;;;;;;;5.13;1.98;;;;;;;21.63;46.93;99695.28;343571;28;1732;-78
2022/08/30 00:16:14;;;;;;;5.55;1.90;;;;;;;21.64;47.07;99700.44;345441;28;1780;-78
2022/08/30 00:16:26;;;;;;;5.25;2.00;;;;;;;21.62;48.32;99697.09;345339;28;1116;-78
2022/08/30 00:16:38;;;;;;;3.80;2.03;;;;;;;21.63;48.92;99700.56;345996;28;1129;-78
2022/08/30 00:16:50;;;;;;;4.05;2.10;;;;;;;21.63;48.02;99700.56;345702;28;1077;-78
2022/08/30 00:17:03;;;;;;;3.25;2.00;;;;;;;21.62;47.59;99704.19;344511;28;1665;-78
2022/08/30 00:17:15;;;;;;;3.13;2.00;;;;;;;21.60;47.16;99698.19;344451;28;1747;-78
2022/08/30 00:17:27;;;;;;;3.13;2.00;;;;;;;21.57;46.58;99696.63;344921;28;1192;-78
2022/08/30 00:17:42;;;;;;;3.67;1.98;;;;;;;21.58;46.25;99700.94;345804;28;1038;-78
2022/08/30 00:17:54;;;;;;;3.00;1.70;;;;;;;21.59;46.87;99699.13;345240;28;1437;-78
2022/08/30 00:18:07;;;;;;;2.38;1.75;;;;;;;21.59;47.70;99699.13;344705;28;1727;-77
2022/08/30 00:18:19;;;;;;;2.33;1.90;;;;;;;21.57;48.11;99701.03;344773;28;1782;-77
2022/08/30 00:18:35;;;;;;;2.72;1.98;;;;;;;21.56;47.61;99699.38;346785;28;1162;-77
2022/08/30 00:18:48;;;;;;;2.88;1.95;;;;;;;21.57;47.10;99701.03;346143;28;1518;-77
2022/08/30 00:19:01;;;;;;;2.53;1.80;;;;;;;21.58;47.35;99702.75;344897;28;1978;-77
2022/08/30 00:19:13;;;;;;;2.75;1.80;;;;;;;21.57;46.89;99695.75;344766;28;1820;-77
2022/08/30 00:19:25;;;;;;;3.70;1.90;;;;;;;21.58;47.19;99697.47;346165;28;1590;-77
2022/08/30 00:19:37;;;;;;;3.65;1.90;;;;;;;21.56;47.46;99699.38;346378;28;1091;-77
2022/08/30 00:19:49;;;;;;;3.80;1.90;;;;;;;21.56;47.14;99694.09;346550;28;1051;-77
2022/08/30 00:20:05;;;;;;;3.47;1.70;;;;;;;21.57;46.96;99706.34;345774;28;1838;-77
2022/08/30 00:20:22;;;;;;;3.13;1.60;;;;;;;21.57;47.05;99698.41;344817;28;1957;-78
2022/08/30 00:20:35;;;;;;;4.20;1.95;;;;;;;21.56;48.50;99694.91;344085;28;1317;-78
2022/08/30 00:20:49;;;;;;;4.28;2.00;;;;;;;21.54;47.92;99695.03;343432;28;1922;-78
2022/08/30 00:21:03;;;;;;;5.03;1.90;;;;;;;21.51;46.57;99703.22;343071;28;1682;-78
2022/08/30 00:21:15;;;;;;;4.57;1.90;;;;;;;21.52;46.90;99699.59;343096;28;1882;-78
2022/08/30 00:21:27;;;;;;;4.03;1.83;;;;;;;21.54;46.67;99697.69;343159;28;1587;-78
2022/08/30 00:21:39;;;;;;;4.40;1.80;;;;;;;21.52;46.37;99696.97;344644;28;1103;-78
2022/08/30 00:21:51;;;;;;;2.80;1.90;;;;;;;21.52;47.79;99696.97;345144;28;1121;-78
2022/08/30 00:22:05;;;;;;;4.50;2.10;;;;;;;21.53;48.01;99701.31;344299;28;1843;-78
2022/08/30 00:22:17;;;;;;;4.60;2.05;;;;;;;21.53;47.86;99695.16;344957;28;1479;-78
2022/08/30 00:22:31;;;;;;;3.38;2.00;;;;;;;21.54;47.07;99697.69;346571;28;1754;-78
2022/08/30 00:22:44;;;;;;;3.80;1.90;;;;;;;21.55;46.97;99698.53;346132;28;1047;-78
2022/08/30 00:22:56;;;;;;;3.70;2.00;;;;;;;21.54;47.75;99702.97;346738;28;773;-77
2022/08/30 00:23:08;;;;;;;3.08;2.08;;;;;;;21.53;48.07;99700.44;345594;28;1936;-77
2022/08/30 00:23:21;;;;;;;3.17;2.10;;;;;;;21.52;47.15;99689.03;345494;28;2060;-77
2022/08/30 00:23:33;;;;;;;3.72;2.00;;;;;;;21.50;47.44;99696.22;345924;28;1058;-77
2022/08/30 00:23:45;;;;;;;3.60;1.98;;;;;;;21.51;47.32;99702.34;345757;28;2183;-77
2022/08/30 00:23:57;;;;;;;4.50;2.05;;;;;;;21.44;48.98;99706.44;345736;28;1813;-77
2022/08/30 00:24:09;;;;;;;5.35;2.00;;;;;;;21.44;48.24;99695.88;346789;28;896;-77
2022/08/30 00:24:21;;;;;;;5.38;2.00;;;;;;;21.43;47.82;99702.97;345817;28;1503;-77
2022/08/30 00:24:33;;;;;;;4.25;2.10;;;;;;;21.44;47.85;99698.53;346710;28;895;-77
2022/08/30 00:24:45;;;;;;;3.70;2.05;;;;;;;21.44;47.44;99702.00;344706;28;2195;-77
2022/08/30 00:24:59;;;;;;;3.90;1.98;;;;;;;21.43;47.11;99695.03;343765;28;1096;-77
2022/08/30 00:25:16;;;;;;;4.32;1.80;;;;;;;21.43;46.67;99700.34;343415;28;2120;-77
2022/08/30 00:25:29;;;;;;;3.75;1.80;;;;;;;21.42;46.61;99693.31;342413;28;1601;-77
2022/08/30 00:25:41;;;;;;;2.90;1.85;;;;;;;21.44;46.76;99701.16;344020;28;1508;-77
2022/08/30 00:25:53;;;;;;;2.42;1.77;;;;;;;21.43;46.74;99702.97;345108;28;1190;-77
2022/08/30 00:26:06;;;;;;;3.30;1.85;;;;;;;21.45;46.78;99701.06;344148;28;1710;-77
2022/08/30 00:26:19;;;;;;;3.72;1.80;;;;;;;21.47;46.42;99700.91;343723;28;1934;-77
2022/08/30 00:26:31;;;;;;;3.63;1.80;;;;;;;21.46;46.15;99700.06;344185;28;1102;-77
2022/08/30 00:26:42;;;;;;;4.28;1.92;;;;;;;21.45;45.78;99703.69;343946;28;1071;-77
2022/08/30 00:26:54;;;;;;;4.40;2.05;;;;;;;21.46;46.70;99700.06;342442;28;1533;-77
2022/08/30 00:27:06;;;;;;;4.40;2.03;;;;;;;21.48;46.56;99697.31;345094;28;1235;-77
2022/08/30 00:27:18;;;;;;;4.55;2.00;;;;;;;21.40;47.57;99705.81;344869;28;2727;-77
2022/08/30 00:27:30;;;;;;;4.32;1.80;;;;;;;21.41;47.91;99702.22;345000;28;1051;-77
2022/08/30 00:27:44;;;;;;;3.90;1.80;;;;;;;21.41;47.35;99707.50;345004;28;1015;-77
2022/08/30 00:27:57;;;;;;;3.08;1.88;;;;;;;21.40;46.72;99711.09;345322;28;1550;-77
2022/08/30 00:28:11;;;;;;;3.15;1.88;;;;;;;21.40;46.62;99700.53;344682;28;1504;-77
2022/08/30 00:28:23;;;;;;;2.75;1.90;;;;;;;21.40;46.93;99705.81;345341;28;1374;-77
2022/08/30 00:28:36;;;;;;;2.55;1.88;;;;;;;21.41;48.04;99706.66;346187;28;1179;-77
2022/08/30 00:28:48;;;;;;;2.40;1.70;;;;;;;21.42;47.71;99713.63;346491;28;1225;-77
2022/08/30 00:29:00;;;;;;;2.92;1.80;;;;;;;21.42;47.80;99713.63;345617;28;1810;-77
2022/08/30 00:29:12;;;;;;;3.90;2.00;;;;;;;21.43;47.52;99705.63;346472;28;1845;-77
2022/08/30 00:29:24;;;;;;;5.20;2.00;;;;;;;21.44;47.38;99707.28;345077;28;1192;-77
2022/08/30 00:29:36;;;;;;;4.82;1.85;;;;;;;21.46;47.25;99715.13;345083;28;1289;-77
2022/08/30 00:29:48;;;;;;;4.60;1.98;;;;;;;21.45;47.12;99708.13;345178;28;1860;-77
2022/08/30 00:30:01;;;;;;;4.15;2.00;;;;;;;21.44;47.06;99704.66;345358;28;1528;-77
2022/08/30 00:30:15;;;;;;;3.45;1.95;;;;;;;21.46;47.24;99713.31;345275;28;1073;-77
2022/08/30 00:30:27;;;;;;;3.17;1.90;;;;;;;21.44;46.74;99712.56;343785;28;1176;-77
2022/08/30 00:30:40;;;;;;;3.70;1.90;;;;;;;21.43;48.11;99716.19;343764;28;1716;-77
2022/08/30 00:30:52;;;;;;;4.53;1.90;;;;;;;21.42;46.88;99711.81;343822;28;1338;-77
2022/08/30 00:31:05;;;;;;;4.18;1.90;;;;;;;21.39;45.84;99714.72;344612;28;1814;-77
2022/08/30 00:31:17;;;;;;;4.35;1.90;;;;;;;21.40;46.10;99710.25;345791;28;1810;-77
2022/08/30 00:31:29;;;;;;;2.63;1.90;;;;;;;21.40;46.56;99711.09;347178;28;1140;-77
2022/08/30 00:31:42;;;;;;;3.22;1.88;;;;;;;21.41;46.34;99715.44;347870;28;1048;-77
2022/08/30 00:31:54;;;;;;;4.15;1.90;;;;;;;21.42;46.37;99711.81;347543;28;1171;-77
2022/08/30 00:32:06;;;;;;;4.78;1.95;;;;;;;21.43;45.72;99705.63;346804;28;1958;-77
2022/08/30 00:32:20;;;;;;;3.75;2.05;;;;;;;21.42;45.85;99713.63;345629;28;2019;-77
2022/08/30 00:32:32;;;;;;;4.05;1.95;;;;;;;21.42;45.63;99714.47;346547;28;1688;-77
2022/08/30 00:32:44;;;;;;;3.97;1.90;;;;;;;21.42;45.61;99714.47;344382;28;1861;-77
2022/08/30 00:32:57;;;;;;;3.10;1.80;;;;;;;21.40;46.60;99710.25;344899;28;1193;-77
2022/08/30 00:33:10;;;;;;;3.03;1.98;;;;;;;21.36;46.52;99714.94;344390;28;1780;-77
2022/08/30 00:33:22;;;;;;;3.00;1.90;;;;;;;21.34;46.08;99712.41;344499;28;1511;-77
2022/08/30 00:33:35;;;;;;;3.38;1.77;;;;;;;21.28;45.50;99714.69;344500;28;1718;-77
2022/08/30 00:33:47;;;;;;;4.10;1.85;;;;;;;21.26;45.81;99720.09;343215;28;1813;-77
2022/08/30 00:33:59;;;;;;;4.60;1.92;;;;;;;21.28;46.25;99722.63;343342;28;1715;-77
2022/08/30 00:34:11;;;;;;;3.28;1.90;;;;;;;21.30;46.06;99713.59;342504;28;1148;-77
2022/08/30 00:34:23;;;;;;;2.58;1.80;;;;;;;21.32;46.30;99718.78;343864;28;1391;-77
2022/08/30 00:34:34;;;;;;;3.10;1.88;;;;;;;21.32;46.11;99718.78;345326;28;817;-77
2022/08/30 00:34:47;;;;;;;3.60;1.90;;;;;;;21.30;47.14;99715.41;344635;28;1043;-77
2022/08/30 00:34:59;;;;;;;3.78;1.98;;;;;;;21.31;46.21;99715.31;344436;28;1940;-77
2022/08/30 00:35:19;;;;;;;3.85;2.03;;;;;;;21.29;46.17;99713.75;344678;28;1630;-77
2022/08/30 00:35:31;;;;;;;3.47;2.10;;;;;;;21.31;46.55;99714.47;344964;28;1099;-77
2022/08/30 00:35:43;;;;;;;3.78;2.00;;;;;;;21.29;46.74;99714.56;345237;28;1656;-77
2022/08/30 00:35:55;;;;;;;5.55;2.00;;;;;;;21.32;46.69;99718.78;346323;28;1105;-77
2022/08/30 00:36:07;;;;;;;5.53;2.08;;;;;;;21.32;46.33;99711.69;345056;28;1602;-77
2022/08/30 00:36:20;;;;;;;4.47;2.10;;;;;;;21.33;46.50;99712.53;345463;28;1789;-77
2022/08/30 00:36:32;;;;;;;3.97;2.00;;;;;;;21.33;46.35;99716.03;345561;28;1509;-77
2022/08/30 00:36:44;;;;;;;4.03;2.00;;;;;;;21.32;47.45;99721.41;345556;28;887;-77
2022/08/30 00:36:56;;;;;;;2.58;1.90;;;;;;;21.31;46.85;99717.94;345019;28;1147;-77
2022/08/30 00:37:08;;;;;;;2.83;2.08;;;;;;;21.30;46.88;99716.25;343982;28;1216;-77
2022/08/30 00:37:20;;;;;;;3.50;2.15;;;;;;;21.32;46.83;99714.31;343168;28;1528;-77
2022/08/30 00:37:32;;;;;;;3.83;2.08;;;;;;;21.34;46.97;99717.69;343800;28;1213;-77
2022/08/30 00:37:46;;;;;;;3.40;2.00;;;;;;;21.34;46.75;99716.84;344142;28;1153;-77
2022/08/30 00:37:58;;;;;;;2.47;1.80;;;;;;;21.35;47.42;99718.56;344261;28;1901;-77
2022/08/30 00:38:12;;;;;;;1.88;1.65;;;;;;;21.34;47.13;99720.34;345328;28;1114;-77
2022/08/30 00:38:24;;;;;;;2.28;1.88;;;;;;;21.34;47.08;99720.34;346085;28;1702;-77
2022/08/30 00:38:36;;;;;;;2.83;1.90;;;;;;;21.36;46.54;99714.94;346460;28;1143;-77
2022/08/30 00:38:48;;;;;;;3.25;2.00;;;;;;;21.38;46.39;99717.47;346576;28;1057;-77
2022/08/30 00:39:00;;;;;;;3.33;1.92;;;;;;;21.37;46.67;99714.00;346424;28;1136;-77
2022/08/30 00:39:12;;;;;;;3.65;1.90;;;;;;;21.35;47.29;99711.47;346276;28;1235;-77
2022/08/30 00:39:24;;;;;;;3.13;1.80;;;;;;;21.36;47.23;99714.94;346166;28;1493;-77
2022/08/30 00:39:37;;;;;;;3.53;1.90;;;;;;;21.37;47.08;99718.41;346559;28;1148;-77
2022/08/30 00:39:50;;;;;;;3.28;1.80;;;;;;;21.38;47.07;99715.66;346272;28;1778;-77
2022/08/30 00:40:04;;;;;;;3.58;1.70;;;;;;;21.40;46.91;99715.56;344761;28;1277;-77
2022/08/30 00:40:19;;;;;;;5.05;1.98;;;;;;;21.37;46.57;99706.06;345435;28;822;-77
2022/08/30 00:40:40;;;;;;;3.65;2.03;;;;;;;21.37;46.88;99711.34;344945;28;1482;-77
2022/08/30 00:40:52;;;;;;;3.13;1.92;;;;;;;21.37;46.66;99715.78;343605;28;1189;-77
2022/08/30 00:41:05;;;;;;;2.83;1.80;;;;;;;21.37;46.70;99710.47;343697;28;1132;-79
2022/08/30 00:41:17;;;;;;;3.17;1.80;;;;;;;21.34;46.05;99716.84;343966;28;981;-78
2022/08/30 00:41:29;;;;;;;3.25;1.80;;;;;;;21.33;46.60;99720.47;344887;28;920;-78
2022/08/30 00:41:41;;;;;;;3.45;1.80;;;;;;;21.33;45.92;99715.19;344591;28;848;-78
2022/08/30 00:41:54;;;;;;;2.90;1.80;;;;;;;21.34;46.23;99717.69;344645;28;1786;-78
2022/08/30 00:42:08;;;;;;;2.47;1.80;;;;;;;21.35;46.45;99715.91;344957;28;1240;-78
2022/08/30 00:42:20;;;;;;;2.70;1.80;;;;;;;21.38;46.31;99718.31;346351;28;1319;-78
2022/08/30 00:42:32;;;;;;;3.15;1.90;;;;;;;21.39;46.08;99720.00;346533;28;1709;-77
2022/08/30 00:42:45;;;;;;;3.20;1.83;;;;;;;21.38;46.06;99718.31;346660;28;1201;-77
2022/08/30 00:43:07;;;;;;;4.63;1.85;;;;;;;21.38;46.06;99713.00;346275;28;1167;-77
2022/08/30 00:43:30;;;;;;;3.67;1.90;;;;;;;21.35;46.25;99713.28;346345;28;1139;-77
2022/08/30 00:43:43;;;;;;;2.55;1.83;;;;;;;21.34;46.30;99722.16;346807;28;1138;-77
2022/08/30 00:43:55;;;;;;;2.58;1.80;;;;;;;21.34;46.19;99715.06;344792;28;1970;-77
2022/08/30 00:44:08;;;;;;;4.30;1.80;;;;;;;21.33;46.24;99715.19;345287;28;791;-77
2022/08/30 00:44:20;;;;;;;5.72;1.90;;;;;;;21.34;46.10;99716.84;343579;28;1770;-77
2022/08/30 00:44:33;;;;;;;4.77;1.97;;;;;;;21.32;46.89;99710.84;341359;29;994;-77
2022/08/30 00:44:46;;;;;;;3.83;2.00;;;;;;;21.31;46.74;99717.09;341505;28;1752;-77
2022/08/30 00:44:59;;;;;;;4.45;2.00;;;;;;;21.32;47.72;99718.78;342858;28;1551;-77
2022/08/30 00:45:16;;;;;;;4.55;1.92;;;;;;;21.31;47.70;99717.09;344564;28;1847;-77
2022/08/30 00:45:31;;;;;;;3.22;2.00;;;;;;;21.31;47.05;99717.09;344528;28;1842;-77
2022/08/30 00:45:43;;;;;;;3.72;2.00;;;;;;;21.30;47.15;99713.59;343074;28;1171;-77
2022/08/30 00:45:57;;;;;;;3.83;1.95;;;;;;;21.33;46.97;99715.19;343664;28;1058;-77
2022/08/30 00:46:09;;;;;;;4.65;1.88;;;;;;;21.31;47.48;99712.66;344163;28;1793;-77
2022/08/30 00:46:21;;;;;;;4.22;1.90;;;;;;;21.32;47.70;99714.31;344888;28;1580;-77
2022/08/30 00:46:34;;;;;;;4.00;1.90;;;;;;;21.31;46.89;99714.47;346173;28;1254;-77
2022/08/30 00:46:46;;;;;;;3.90;1.90;;;;;;;21.32;47.34;99718.78;346143;28;1169;-77
2022/08/30 00:46:58;;;;;;;3.17;1.90;;;;;;;21.32;47.40;99710.84;346413;28;1043;-77
2022/08/30 00:47:10;;;;;;;3.27;1.90;;;;;;;21.34;47.16;99714.22;345471;28;1575;-77
2022/08/30 00:47:22;;;;;;;2.60;1.80;;;;;;;21.35;47.15;99715.91;345027;28;1798;-77
2022/08/30 00:47:34;;;;;;;2.63;1.80;;;;;;;21.33;48.47;99712.53;344953;28;1079;-77
2022/08/30 00:47:46;;;;;;;2.90;1.80;;;;;;;21.29;47.11;99709.28;345810;28;1557;-77
2022/08/30 00:47:59;;;;;;;3.20;1.73;;;;;;;21.31;47.06;99711.81;344069;28;725;-77
2022/08/30 00:48:11;;;;;;;2.83;1.70;;;;;;;21.30;47.25;99710.13;344538;28;1636;-77
2022/08/30 00:48:23;;;;;;;3.17;1.90;;;;;;;21.30;46.97;99710.13;343433;28;1380;-77
2022/08/30 00:48:39;;;;;;;3.08;2.00;;;;;;;21.30;46.32;99707.47;343766;28;1219;-77
2022/08/30 00:48:52;;;;;;;3.17;1.90;;;;;;;21.30;46.59;99715.41;342226;28;1056;-77
2022/08/30 00:49:06;;;;;;;3.67;1.83;;;;;;;21.30;46.19;99712.75;341517;28;1810;-77
2022/08/30 00:49:18;;;;;;;5.28;1.80;;;;;;;21.30;46.62;99713.59;342777;28;1099;-77
2022/08/30 00:49:33;;;;;;;5.60;1.80;;;;;;;21.30;46.37;99710.13;343861;28;1058;-77
2022/08/30 00:49:49;;;;;;;4.93;1.80;;;;;;;21.29;46.40;99709.28;343649;28;1412;-77
2022/08/30 00:50:01;;;;;;;3.20;1.88;;;;;;;21.30;46.85;99704.84;342491;28;1803;-77
2022/08/30 00:50:17;;;;;;;3.47;2.00;;;;;;;21.29;48.27;99709.28;344558;28;1795;-77
2022/08/30 00:50:34;;;;;;;3.95;2.00;;;;;;;21.31;47.11;99709.19;344590;28;1082;-77
2022/08/30 00:50:53;;;;;;;4.18;1.80;;;;;;;21.33;46.79;99709.91;345606;28;1875;-77
2022/08/30 00:51:08;;;;;;;6.18;1.92;;;;;;;21.29;46.26;99711.94;346803;28;1174;-77
2022/08/30 00:51:21;;;;;;;5.13;2.08;;;;;;;21.28;46.65;99706.75;345684;28;1210;-77
2022/08/30 00:51:34;;;;;;;4.07;1.92;;;;;;;21.29;46.77;99703.16;346774;28;758;-77
2022/08/30 00:51:47;;;;;;;3.15;1.90;;;;;;;21.32;46.87;99713.50;346894;28;1078;-77
2022/08/30 00:52:00;;;;;;;2.97;1.85;;;;;;;21.32;47.15;99711.69;347195;28;1889;-77
2022/08/30 00:52:14;;;;;;;4.60;1.88;;;;;;;21.32;46.92;99709.03;346101;28;1732;-77
2022/08/30 00:52:27;;;;;;;4.88;2.00;;;;;;;21.32;47.14;99713.50;345788;28;1030;-77
2022/08/30 00:52:42;;;;;;;4.22;2.00;;;;;;;21.33;47.11;99709.91;346577;28;922;-77
2022/08/30 00:52:58;;;;;;;4.25;1.88;;;;;;;21.34;46.68;99712.41;345403;28;1746;-77
2022/08/30 00:53:15;;;;;;;3.15;1.85;;;;;;;21.35;46.35;99713.28;346673;28;1544;-77
2022/08/30 00:53:32;;;;;;;4.32;2.03;;;;;;;21.36;46.01;99709.66;344965;28;1031;-77
2022/08/30 00:53:48;;;;;;;3.83;1.90;;;;;;;21.36;47.30;99709.66;343385;28;1024;-77
2022/08/30 00:54:02;;;;;;;3.35;2.00;;;;;;;21.36;46.52;99707.00;343353;28;1744;-77
2022/08/30 00:54:15;;;;;;;3.10;1.98;;;;;;;21.36;46.70;99712.28;345375;28;1592;-77
2022/08/30 00:54:29;;;;;;;2.67;1.80;;;;;;;21.35;47.16;99708.81;343929;28;982;-77
2022/08/30 00:54:44;;;;;;;3.30;1.90;;;;;;;21.34;46.79;99712.41;343752;28;1289;-77
2022/08/30 00:54:56;;;;;;;3.60;2.10;;;;;;;21.35;46.67;99708.81;343919;28;1277;-77
2022/08/30 00:55:11;;;;;;;4.28;2.00;;;;;;;21.37;46.93;99714.00;342744;28;1736;-77
2022/08/30 00:55:23;;;;;;;4.13;1.80;;;;;;;21.35;46.83;99708.81;342626;28;1122;-77
2022/08/30 00:55:35;;;;;;;4.78;1.92;;;;;;;21.35;47.12;99707.97;343698;28;1055;-77
2022/08/30 00:55:54;;;;;;;4.10;2.00;;;;;;;21.32;46.82;99708.19;344073;28;861;-77
2022/08/30 00:56:07;;;;;;;2.58;1.80;;;;;;;21.34;46.41;99707.13;345772;28;1679;-77
2022/08/30 00:56:20;;;;;;;3.75;1.92;;;;;;;21.32;46.83;99713.50;344428;28;2245;-77
2022/08/30 00:56:33;;;;;;;5.45;2.10;;;;;;;21.32;46.32;99708.19;344901;28;1051;-77
2022/08/30 00:56:47;;;;;;;5.45;1.92;;;;;;;21.35;46.56;99713.28;343757;28;1138;-77
2022/08/30 00:56:59;;;;;;;4.53;1.75;;;;;;;21.33;47.02;99709.91;344399;28;1015;-77
2022/08/30 00:57:13;;;;;;;3.70;1.77;;;;;;;21.33;46.65;99709.91;344961;28;1298;-77
2022/08/30 00:57:25;;;;;;;2.47;1.73;;;;;;;21.33;47.27;99720.47;344926;28;1831;-77
2022/08/30 00:57:37;;;;;;;3.60;1.90;;;;;;;21.35;46.79;99713.28;345360;28;1190;-77
2022/08/30 00:57:56;;;;;;;3.60;2.00;;;;;;;21.36;46.68;99714.94;344328;28;1758;-77
2022/08/30 00:58:14;;;;;;;2.97;1.80;;;;;;;21.34;47.19;99717.69;344105;28;1877;-77
2022/08/30 00:58:35;;;;;;;3.72;1.98;;;;;;;21.32;47.33;99719.63;344631;28;1299;-77
2022/08/30 00:58:50;;;;;;;3.03;1.90;;;;;;;21.32;46.66;99713.50;345669;28;1023;-77
2022/08/30 00:59:05;;;;;;;4.00;2.00;;;;;;;21.32;46.69;99714.31;346064;28;1878;-77
2022/08/30 00:59:20;;;;;;;3.20;1.83;;;;;;;21.32;46.09;99713.50;345989;28;1882;-77
2022/08/30 00:59:33;;;;;;;2.33;1.73;;;;;;;21.33;45.79;99708.09;344875;28;1334;-77
2022/08/30 00:59:48;;;;;;;2.83;1.80;;;;;;;21.33;46.22;99710.72;344595;28;2156;-77
2022/08/30 01:00:02;;;;;;;3.97;1.85;;;;;;;21.33;47.24;99709.91;344510;28;1584;-78
2022/08/30 01:00:15;;;;;;;4.72;1.98;;;;;;;21.25;47.02;99712.25;343895;28;1932;-78
2022/08/30 01:00:28;;;;;;;4.35;1.98;;;;;;;21.26;46.55;99716.59;343708;28;1032;-77
2022/08/30 01:00:40;;;;;;;4.78;1.83;;;;;;;21.28;45.95;99712.88;343391;28;1087;-77
2022/08/30 01:00:55;;;;;;;4.00;1.80;;;;;;;21.29;45.80;99711.94;343153;28;889;-77
2022/08/30 01:01:08;;;;;;;3.95;1.90;;;;;;;21.30;45.58;99710.13;343612;28;1819;-77
2022/08/30 01:01:21;;;;;;;3.83;1.92;;;;;;;21.30;46.81;99716.25;342966;28;2497;-77
2022/08/30 01:01:34;;;;;;;3.20;2.00;;;;;;;21.30;46.67;99710.13;343196;28;1671;-77
2022/08/30 01:01:47;;;;;;;3.92;1.95;;;;;;;21.31;46.78;99711.81;344206;28;1122;-77
2022/08/30 01:02:01;;;;;;;3.60;1.80;;;;;;;21.32;47.07;99710.84;344879;28;1087;-77
2022/08/30 01:02:18;;;;;;;3.50;1.65;;;;;;;21.34;46.60;99711.56;344941;28;1607;-77
2022/08/30 01:02:32;;;;;;;3.92;1.80;;;;;;;21.31;46.28;99710.00;344098;28;1553;-77
2022/08/30 01:02:44;;;;;;;3.45;1.88;;;;;;;21.21;46.55;99710.81;344241;28;1868;-77
2022/08/30 01:02:59;;;;;;;3.17;1.80;;;;;;;21.19;48.20;99710.09;343468;28;1123;-77
2022/08/30 01:03:11;;;;;;;2.70;1.80;;;;;;;21.22;47.65;99717.78;344385;28;1666;-77
2022/08/30 01:03:24;;;;;;;2.10;1.75;;;;;;;21.24;46.74;99715.88;345580;28;1148;-77
2022/08/30 01:03:37;;;;;;;2.30;1.70;;;;;;;21.23;46.87;99714.19;344457;28;2073;-77
2022/08/30 01:03:50;;;;;;;2.72;1.73;;;;;;;21.23;45.92;99714.19;344406;28;4254;-77
2022/08/30 01:04:04;;;;;;;3.03;1.70;;;;;;;21.24;45.74;99716.72;343073;28;1780;-77
2022/08/30 01:04:20;;;;;;;3.85;1.75;;;;;;;21.23;45.60;99714.19;342727;28;1565;-77
2022/08/30 01:04:33;;;;;;;3.90;1.80;;;;;;;21.21;46.03;99711.69;344872;28;1504;-77